Time;durP1;ratioP1;P1;durP2;ratioP2;P2;SDS_P1;SDS_P2;PMS_P1;PMS_P2;Temp;Humidity;BMP_temperature;BMP_pressure;BME280_temperature;BME280_humidity;BME280_pressure;Samples;Min_cycle;Max_cycle;Signal;HPM_P1;HPM_P2
2021/03/08 00:01:12;;;;;;;13.50;8.05;;;;;;;9.27;36.06;100104.59;1770420;79;21121;-79
2021/03/08 00:03:40;;;;;;;13.55;7.85;;;;;;;9.28;36.05;100097.74;1769019;81;21193;-76
2021/03/08 00:06:08;;;;;;;10.95;8.00;;;;;;;9.28;36.00;100089.73;1793967;79;21200;-75
2021/03/08 00:08:35;;;;;;;10.13;7.45;;;;;;;9.27;35.95;100091.23;1770979;79;21157;-77
2021/03/08 00:11:04;;;;;;;11.55;8.10;;;;;;;9.26;36.03;100079.67;1796046;79;21051;-78
2021/03/08 00:13:34;;;;;;;13.83;8.55;;;;;;;9.22;35.98;100071.66;1772070;79;21167;-74
2021/03/08 00:16:02;;;;;;;12.20;7.75;;;;;;;9.12;36.13;100075.76;1792308;79;21122;-77
2021/03/08 00:18:30;;;;;;;11.45;7.45;;;;;;;9.18;36.07;100076.98;1793943;79;21145;-81
2021/03/08 00:20:57;;;;;;;11.40;7.78;;;;;;;9.18;36.12;100067.63;1792336;79;21605;-77
2021/03/08 00:23:25;;;;;;;11.53;8.23;;;;;;;9.19;36.05;100059.95;1789860;79;21103;-76
2021/03/08 00:25:52;;;;;;;14.90;7.90;;;;;;;9.15;36.09;100052.73;1783970;79;21046;-78
2021/03/08 00:28:20;;;;;;;13.53;8.28;;;;;;;9.15;36.05;100046.56;1771204;79;21608;-78
2021/03/08 00:30:48;;;;;;;13.10;7.67;;;;;;;9.11;36.11;100050.05;1776591;79;21099;-79
2021/03/08 00:33:16;;;;;;;10.43;7.60;;;;;;;9.06;36.18;100051.02;1771096;79;21188;-78
2021/03/08 00:35:44;;;;;;;12.00;8.38;;;;;;;9.05;36.27;100049.35;1757362;81;21146;-74
2021/03/08 00:38:11;;;;;;;11.15;8.43;;;;;;;9.05;36.23;100045.34;1769640;80;21131;-79
2021/03/08 00:40:40;;;;;;;11.78;8.68;;;;;;;9.06;36.16;100045.67;1783201;79;21157;-79
2021/03/08 00:43:07;;;;;;;13.22;8.40;;;;;;;9.05;36.14;100041.34;1771309;79;21153;-79
2021/03/08 00:45:35;;;;;;;10.95;7.45;;;;;;;9.06;36.25;100037.66;1793298;79;21130;-76
2021/03/08 00:48:07;;;;;;;13.85;8.65;;;;;;;9.05;36.23;100030.66;1781079;79;21531;-81
2021/03/08 00:50:36;;;;;;;11.33;7.78;;;;;;;9.07;36.19;100033.98;1787702;79;21165;-80
2021/03/08 00:53:05;;;;;;;11.33;7.97;;;;;;;9.08;36.22;100032.16;1773330;79;21165;-77
2021/03/08 00:55:34;;;;;;;11.03;7.80;;;;;;;9.10;36.22;100028.34;1797698;79;21806;-78
2021/03/08 00:58:02;;;;;;;12.68;8.40;;;;;;;9.13;36.11;100024.02;1789919;79;21165;-76
2021/03/08 01:00:30;;;;;;;12.15;9.18;;;;;;;9.09;36.15;100015.98;1792458;79;21118;-77
2021/03/08 01:02:59;;;;;;;12.63;8.88;;;;;;;9.11;36.16;100015.31;1797063;79;21094;-76
2021/03/08 01:05:27;;;;;;;13.90;8.78;;;;;;;9.15;36.11;100009.98;1787846;79;21154;-79
2021/03/08 01:07:55;;;;;;;12.55;8.75;;;;;;;9.19;36.04;100008.34;1795106;79;21601;-76
2021/03/08 01:10:27;;;;;;;13.62;8.50;;;;;;;9.19;36.06;100005.67;1783534;79;21139;-79
2021/03/08 01:12:55;;;;;;;11.63;8.58;;;;;;;9.27;35.93;99995.86;1783757;79;21118;-78
2021/03/08 01:15:23;;;;;;;13.75;8.53;;;;;;;9.31;35.88;99995.88;1793639;79;21130;-78
2021/03/08 01:17:52;;;;;;;11.78;8.25;;;;;;;9.19;36.10;99993.64;1797699;79;21588;-79
2021/03/08 01:20:20;;;;;;;11.25;8.43;;;;;;;9.17;36.21;99996.96;1785847;79;21612;-80
2021/03/08 01:22:49;;;;;;;12.65;8.83;;;;;;;9.22;36.17;99983.95;1792972;79;21154;-76
2021/03/08 01:25:29;;;;;;;13.88;8.58;;;;;;;9.15;36.28;99980.59;1784890;79;21577;-80
2021/03/08 01:27:57;;;;;;;12.93;9.48;;;;;;;9.13;36.22;99979.94;1767405;81;21589;-78
2021/03/08 01:30:29;;;;;;;12.95;8.95;;;;;;;9.14;36.23;99985.61;1792686;79;21197;-75
2021/03/08 01:32:58;;;;;;;14.18;9.10;;;;;;;9.12;36.30;99984.91;1770035;80;21129;-78
2021/03/08 01:35:26;;;;;;;14.93;10.25;;;;;;;9.22;36.22;99983.95;1791474;79;21166;-80
2021/03/08 01:37:54;;;;;;;15.95;10.43;;;;;;;9.24;36.19;99983.31;1789284;79;21119;-79
2021/03/08 01:40:24;;;;;;;13.35;9.23;;;;;;;9.27;36.28;99991.02;1764066;80;21053;-76
2021/03/08 01:42:51;;;;;;;14.10;8.73;;;;;;;9.27;36.28;99995.86;1761325;81;21142;-80
2021/03/08 01:45:21;;;;;;;13.55;8.50;;;;;;;9.25;36.23;99988.98;1770718;80;21142;-76
2021/03/08 01:47:48;;;;;;;11.28;8.23;;;;;;;9.24;36.35;99997.50;1748095;81;21170;-78
2021/03/08 01:50:31;;;;;;;15.60;9.10;;;;;;;9.24;36.41;99984.64;1748603;81;21700;-77
2021/03/08 01:52:58;;;;;;;12.28;8.35;;;;;;;9.20;36.49;99984.63;1771054;79;21611;-79
2021/03/08 01:55:27;;;;;;;12.63;8.53;;;;;;;9.15;36.54;99979.27;1786472;79;21158;-78
2021/03/08 01:57:54;;;;;;;12.80;8.63;;;;;;;9.16;36.47;99982.77;1749046;80;21185;-79
2021/03/08 02:00:24;;;;;;;11.55;8.70;;;;;;;9.17;36.45;99975.59;1770991;80;21197;-78
2021/03/08 02:03:10;;;;;;;14.13;8.75;;;;;;;9.18;36.55;99978.62;1770025;80;21145;-78
2021/03/08 02:05:43;;;;;;;12.70;8.40;;;;;;;9.19;36.52;99981.62;1763820;80;21600;-75
2021/03/08 02:08:14;;;;;;;12.75;9.43;;;;;;;9.17;36.61;99979.59;1776791;80;21136;-81
2021/03/08 02:10:43;;;;;;;15.78;10.70;;;;;;;9.14;36.75;99976.77;1767272;80;21127;-78
2021/03/08 02:13:51;;;;;;;15.25;10.75;;;;;;;9.07;37.00;99974.38;1766548;80;21557;-78
2021/03/08 02:16:47;;;;;;;15.10;10.25;;;;;;;9.04;37.18;99981.40;1797209;79;21142;-77
2021/03/08 02:19:40;;;;;;;18.40;11.30;;;;;;;9.01;37.31;99973.19;1763844;80;21566;-79
2021/03/08 02:22:38;;;;;;;16.50;11.08;;;;;;;8.98;37.45;99986.02;1769098;79;21173;-76
2021/03/08 02:25:41;;;;;;;15.83;10.65;;;;;;;9.02;37.58;99977.53;1751633;81;41908;-79
2021/03/08 02:28:43;;;;;;;17.62;11.85;;;;;;;8.91;37.86;99976.48;1766717;80;21193;-81
2021/03/08 02:31:18;;;;;;;14.35;10.30;;;;;;;8.85;37.97;99973.09;1723136;80;21193;-78
2021/03/08 02:34:02;;;;;;;15.05;10.00;;;;;;;8.84;37.97;99974.10;1772458;81;21124;-78
2021/03/08 02:36:35;;;;;;;16.27;11.00;;;;;;;8.80;38.06;99977.58;1803201;79;21082;-81
2021/03/08 02:39:14;;;;;;;14.73;10.38;;;;;;;8.77;38.12;99981.09;1749355;81;21495;-81
2021/03/08 02:41:42;;;;;;;17.17;11.10;;;;;;;8.75;38.23;99986.56;1803170;79;21134;-77
2021/03/08 02:44:13;;;;;;;23.95;13.45;;;;;;;8.74;38.29;99981.39;1771512;80;21298;-78
2021/03/08 02:46:42;;;;;;;28.85;15.55;;;;;;;8.72;38.40;99979.36;1803107;79;21580;-79
2021/03/08 02:49:16;;;;;;;31.20;17.65;;;;;;;8.72;38.48;99986.04;1771148;81;21187;-78
2021/03/08 02:52:02;;;;;;;32.58;17.57;;;;;;;8.72;38.53;99984.70;1802961;79;21051;-78
2021/03/08 02:54:31;;;;;;;32.08;17.52;;;;;;;8.72;38.65;99980.70;1771153;81;21162;-77
2021/03/08 02:57:02;;;;;;;31.00;17.15;;;;;;;8.69;38.71;99974.36;1803040;79;21147;-77
2021/03/08 02:59:40;;;;;;;26.05;15.45;;;;;;;8.67;38.78;99975.83;1771176;81;21158;-77
2021/03/08 03:02:08;;;;;;;27.13;15.28;;;;;;;8.67;38.82;99970.99;1802818;79;21118;-76
2021/03/08 03:04:37;;;;;;;26.75;14.43;;;;;;;8.64;38.84;99970.83;1771285;81;21620;-75
2021/03/08 03:07:05;;;;;;;21.45;12.85;;;;;;;8.64;38.86;99966.83;1802816;79;21677;-77
2021/03/08 03:09:34;;;;;;;23.83;13.78;;;;;;;8.64;38.88;99968.16;1802861;79;21474;-78
2021/03/08 03:12:01;;;;;;;30.57;15.98;;;;;;;8.62;38.86;99962.13;1748262;81;21134;-81
2021/03/08 03:14:29;;;;;;;31.73;16.23;;;;;;;8.60;38.92;99955.62;1778728;79;21173;-81
2021/03/08 03:17:07;;;;;;;27.77;15.65;;;;;;;8.58;38.98;99958.09;1778432;79;21106;-78
2021/03/08 03:19:46;;;;;;;28.73;15.90;;;;;;;8.56;39.01;99956.09;1771254;81;21131;-80
2021/03/08 03:22:13;;;;;;;21.27;12.63;;;;;;;8.53;39.08;99957.23;1778410;79;21181;-79
2021/03/08 03:24:41;;;;;;;21.62;13.13;;;;;;;8.52;39.06;99956.89;1804315;79;21126;-77
2021/03/08 03:27:10;;;;;;;19.67;11.48;;;;;;;8.51;39.02;99953.89;1772336;81;21146;-77
2021/03/08 03:29:38;;;;;;;17.73;10.32;;;;;;;8.47;39.03;99951.19;1803164;79;21177;-79
2021/03/08 03:32:07;;;;;;;24.92;14.20;;;;;;;8.47;39.00;99953.86;1803015;79;21169;-79
2021/03/08 03:34:34;;;;;;;22.40;12.35;;;;;;;8.46;38.95;99950.86;1771605;81;21141;-77
2021/03/08 03:37:02;;;;;;;20.95;12.78;;;;;;;8.47;38.95;99954.36;1803271;79;21513;-78
2021/03/08 03:39:30;;;;;;;28.15;13.90;;;;;;;8.46;38.96;99957.53;1803099;79;21149;-76
2021/03/08 03:41:57;;;;;;;17.65;11.73;;;;;;;8.46;38.97;99958.86;1770993;81;21573;-76
2021/03/08 03:44:27;;;;;;;20.35;11.43;;;;;;;8.46;38.97;99963.37;1754055;79;21621;-76
2021/03/08 03:46:54;;;;;;;15.50;10.25;;;;;;;8.43;38.95;99954.33;1803001;79;21157;-79
2021/03/08 03:49:22;;;;;;;19.77;12.35;;;;;;;8.42;39.00;99956.17;1772378;81;21055;-75
2021/03/08 03:51:50;;;;;;;14.87;9.95;;;;;;;8.39;39.02;99955.14;1803220;79;21625;-78
2021/03/08 03:54:18;;;;;;;13.13;8.83;;;;;;;8.38;39.02;99956.14;1802157;79;21178;-78
2021/03/08 03:56:53;;;;;;;13.50;8.73;;;;;;;8.36;39.00;99952.77;1770112;81;21624;-76
2021/03/08 03:59:23;;;;;;;14.45;9.30;;;;;;;8.34;38.99;99954.73;1768606;81;21388;-77
2021/03/08 04:02:02;;;;;;;15.55;9.65;;;;;;;8.33;38.98;99957.91;1801204;79;21201;-77
2021/03/08 04:04:38;;;;;;;14.78;9.03;;;;;;;8.32;39.00;99952.23;1769814;81;21183;-77
2021/03/08 04:07:07;;;;;;;16.32;10.10;;;;;;;8.30;39.07;99952.03;1756892;81;21200;-77
2021/03/08 04:09:35;;;;;;;17.77;11.68;;;;;;;8.29;39.14;99952.54;1758314;80;21132;-79
2021/03/08 04:12:03;;;;;;;21.33;13.20;;;;;;;8.28;39.09;99950.88;1783085;80;21170;-77
2021/03/08 04:14:31;;;;;;;26.02;14.38;;;;;;;8.26;39.08;99952.84;1776519;80;21126;-77
2021/03/08 04:17:00;;;;;;;26.75;15.00;;;;;;;8.25;39.12;99956.51;1767629;80;21600;-78
2021/03/08 04:19:31;;;;;;;27.93;15.45;;;;;;;8.22;39.14;99950.64;1762265;80;21121;-77
2021/03/08 04:22:02;;;;;;;25.70;13.83;;;;;;;8.21;39.14;99950.30;1770724;80;21181;-79
2021/03/08 04:24:32;;;;;;;22.95;13.48;;;;;;;8.18;39.23;99951.47;1748535;80;21189;-77
2021/03/08 04:27:05;;;;;;;19.25;12.03;;;;;;;8.16;39.23;99949.94;1750320;81;21206;-77
2021/03/08 04:29:37;;;;;;;17.48;11.25;;;;;;;8.17;39.26;99953.77;1758371;81;21211;-78
2021/03/08 04:32:07;;;;;;;17.25;10.85;;;;;;;8.17;39.31;99951.11;1768043;80;21213;-77
2021/03/08 04:34:37;;;;;;;16.32;11.03;;;;;;;8.15;39.32;99945.09;1789617;79;21450;-83
2021/03/08 04:37:04;;;;;;;19.02;11.40;;;;;;;8.14;39.36;99932.77;1768825;80;21205;-76
2021/03/08 04:39:35;;;;;;;15.85;10.60;;;;;;;8.13;39.30;99935.93;1752169;80;21144;-75
2021/03/08 04:42:07;;;;;;;21.65;13.45;;;;;;;8.15;39.34;99938.43;1770435;80;21082;-79
2021/03/08 04:44:35;;;;;;;22.17;14.45;;;;;;;8.16;39.42;99939.27;1767045;80;21169;-82
2021/03/08 04:47:04;;;;;;;45.75;23.87;;;;;;;8.14;39.37;99937.59;1761090;80;21145;-79
2021/03/08 04:49:33;;;;;;;18.23;13.10;;;;;;;8.14;39.45;99933.59;1778095;80;21169;-75
2021/03/08 04:52:01;;;;;;;14.23;11.33;;;;;;;8.14;39.46;99936.27;1769600;81;21728;-76
2021/03/08 04:54:29;;;;;;;13.13;10.40;;;;;;;8.15;39.43;99937.09;1801382;79;21173;-76
2021/03/08 04:56:56;;;;;;;16.80;10.05;;;;;;;8.18;39.37;99937.30;1769760;81;21711;-78
2021/03/08 04:59:24;;;;;;;14.10;9.38;;;;;;;8.18;39.33;99946.63;1801067;79;21521;-75
2021/03/08 05:01:54;;;;;;;13.05;9.58;;;;;;;8.19;39.22;99942.47;1780524;79;21181;-77
2021/03/08 05:04:21;;;;;;;14.00;10.03;;;;;;;8.19;39.21;99941.63;1769310;81;21609;-77
2021/03/08 05:06:49;;;;;;;14.33;9.60;;;;;;;8.20;39.16;99942.80;1745739;80;21173;-74
2021/03/08 05:09:17;;;;;;;11.75;9.40;;;;;;;8.20;39.08;99944.13;1746722;80;21240;-76
2021/03/08 05:11:45;;;;;;;13.13;9.70;;;;;;;8.20;39.08;99951.30;1794183;79;21169;-77
2021/03/08 05:14:16;;;;;;;15.10;9.23;;;;;;;8.22;39.05;99943.97;1801515;79;21166;-77
2021/03/08 05:16:46;;;;;;;17.75;9.60;;;;;;;8.24;39.08;99950.00;1802003;79;21545;-79
2021/03/08 05:19:14;;;;;;;17.12;10.75;;;;;;;8.28;39.07;99952.70;1801933;79;21193;-80
2021/03/08 05:21:42;;;;;;;13.88;10.05;;;;;;;8.31;38.96;99953.23;1770895;81;21586;-78
2021/03/08 05:24:12;;;;;;;15.13;10.75;;;;;;;8.36;38.87;99950.10;1802733;79;21640;-78
2021/03/08 05:26:39;;;;;;;16.48;10.00;;;;;;;8.39;38.86;99947.13;1771252;81;21143;-79
2021/03/08 05:29:07;;;;;;;16.55;11.12;;;;;;;8.41;38.84;99945.16;1792575;79;21263;-78
2021/03/08 05:31:39;;;;;;;15.38;9.80;;;;;;;8.42;38.74;99945.99;1771170;81;21122;-77
2021/03/08 05:34:07;;;;;;;14.50;10.05;;;;;;;8.42;38.74;99950.83;1770880;81;21719;-79
2021/03/08 05:36:40;;;;;;;16.60;10.28;;;;;;;8.45;38.78;99949.66;1745721;80;21185;-77
2021/03/08 05:39:08;;;;;;;16.10;10.50;;;;;;;8.46;38.73;99948.69;1769211;81;21526;-75
2021/03/08 05:41:51;;;;;;;16.35;10.20;;;;;;;8.48;38.73;99943.52;1745896;81;21193;-78
2021/03/08 05:44:20;;;;;;;15.98;11.10;;;;;;;8.52;38.59;99952.05;1769503;81;21193;-76
2021/03/08 05:47:28;;;;;;;16.27;10.23;;;;;;;8.54;38.58;99954.05;1769278;81;21182;-77
2021/03/08 05:50:37;;;;;;;14.78;10.43;;;;;;;8.56;38.59;99950.75;1769595;80;21709;-78
2021/03/08 05:53:39;;;;;;;21.33;10.75;;;;;;;8.59;38.53;99959.29;1771203;81;21174;-76
2021/03/08 05:56:30;;;;;;;17.62;10.65;;;;;;;8.62;38.42;99957.62;1749272;81;21195;-77
2021/03/08 05:59:29;;;;;;;15.80;10.65;;;;;;;8.64;38.40;99959.65;1752412;80;21140;-79
2021/03/08 06:02:02;;;;;;;;;;;;;;;8.66;38.33;99963.48;1814065;79;21236;-75
2021/03/08 06:05:00;;;;;;;17.60;11.88;;;;;;;8.68;38.27;99962.02;1787386;80;20282;-77
2021/03/08 06:08:07;;;;;;;17.10;11.05;;;;;;;8.71;38.24;99966.52;1819153;78;21177;-76
2021/03/08 06:10:36;;;;;;;17.20;10.72;;;;;;;8.74;38.20;99972.05;1818896;78;21185;-76
2021/03/08 06:13:07;;;;;;;18.25;10.65;;;;;;;8.75;38.14;99975.89;1818437;78;21056;-78
2021/03/08 06:15:36;;;;;;;21.10;10.13;;;;;;;8.77;38.11;99981.09;1819133;78;21038;-77
2021/03/08 06:18:07;;;;;;;17.92;10.82;;;;;;;8.78;38.06;99982.76;1819535;78;21317;-76
2021/03/08 06:20:36;;;;;;;18.17;9.48;;;;;;;8.86;37.87;99976.13;1784801;79;21747;-78
2021/03/08 06:23:04;;;;;;;15.25;9.90;;;;;;;8.89;37.83;99978.46;1798798;79;21173;-78
2021/03/08 06:25:31;;;;;;;13.75;10.03;;;;;;;8.89;37.86;99978.46;1793920;79;21138;-77
2021/03/08 06:27:59;;;;;;;16.52;10.40;;;;;;;8.89;37.80;99979.80;1737231;82;21238;-75
2021/03/08 06:30:27;;;;;;;13.55;9.88;;;;;;;8.91;37.87;99978.33;1782644;80;21216;-77
2021/03/08 06:32:57;;;;;;;16.97;10.18;;;;;;;8.94;37.88;99983.33;1752139;80;21177;-80
2021/03/08 06:35:25;;;;;;;17.65;10.08;;;;;;;8.96;37.85;99987.53;1773324;79;21165;-78
2021/03/08 06:37:53;;;;;;;15.35;9.48;;;;;;;9.01;37.86;99981.20;1778993;79;21201;-78
2021/03/08 06:40:23;;;;;;;18.15;9.38;;;;;;;9.03;37.79;99979.70;1791444;79;21245;-76
2021/03/08 06:42:52;;;;;;;14.40;9.35;;;;;;;9.04;37.79;99976.89;1799042;79;21122;-78
2021/03/08 06:45:24;;;;;;;13.50;9.60;;;;;;;9.05;37.65;99985.73;1796274;78;21169;-78
2021/03/08 06:47:55;;;;;;;16.85;10.28;;;;;;;9.05;37.71;99975.88;1760109;81;21197;-76
2021/03/08 06:50:23;;;;;;;11.93;9.18;;;;;;;9.03;37.78;99985.87;1768765;81;21201;-82
2021/03/08 06:52:50;;;;;;;16.80;10.45;;;;;;;9.03;37.86;99980.53;1790481;79;21209;-76
2021/03/08 06:55:24;;;;;;;21.20;10.10;;;;;;;9.05;37.95;99977.72;1740350;81;21676;-75
2021/03/08 06:57:53;;;;;;;14.87;10.10;;;;;;;9.00;38.04;99974.20;1773389;79;21185;-76
2021/03/08 07:00:20;;;;;;;15.72;10.08;;;;;;;9.03;38.09;99964.50;1772048;79;21188;-77
2021/03/08 07:02:48;;;;;;;14.07;10.20;;;;;;;9.05;38.19;99970.54;1741765;81;21213;-77
2021/03/08 07:05:26;;;;;;;14.75;10.15;;;;;;;9.07;38.13;99970.37;1736915;82;21257;-78
2021/03/08 07:07:58;;;;;;;16.00;10.43;;;;;;;9.07;38.24;99968.53;1763519;80;21191;-77
2021/03/08 07:10:36;;;;;;;16.85;11.12;;;;;;;9.06;38.34;99972.21;1757810;79;21196;-78
2021/03/08 07:13:06;;;;;;;16.32;10.58;;;;;;;9.09;38.41;99971.06;1776794;79;21185;-76
2021/03/08 07:15:58;;;;;;;16.87;10.93;;;;;;;9.13;38.42;99967.91;1777823;79;21174;-78
2021/03/08 07:18:26;;;;;;;18.87;10.45;;;;;;;9.16;38.45;99966.73;1754809;81;21193;-79
2021/03/08 07:21:33;;;;;;;19.57;11.68;;;;;;;9.18;38.44;99968.77;1778426;79;21193;-78
2021/03/08 07:24:11;;;;;;;15.85;10.78;;;;;;;9.20;38.45;99964.58;1724542;81;21462;-77
2021/03/08 07:26:44;;;;;;;18.02;10.72;;;;;;;9.20;38.54;99968.09;1767697;79;21189;-75
2021/03/08 07:29:13;;;;;;;16.35;10.75;;;;;;;9.22;38.52;99974.12;1754816;79;21226;-77
2021/03/08 07:31:44;;;;;;;16.97;11.05;;;;;;;9.26;38.46;99971.95;1747036;80;21209;-78
2021/03/08 07:34:14;;;;;;;21.10;10.65;;;;;;;9.29;38.44;99980.98;1741619;81;21617;-76
2021/03/08 07:36:58;;;;;;;17.48;10.80;;;;;;;9.30;38.48;99977.30;1753267;81;21208;-76
2021/03/08 07:39:26;;;;;;;22.20;11.50;;;;;;;9.31;38.61;99974.97;1753906;81;21217;-78
2021/03/08 07:41:58;;;;;;;18.67;10.68;;;;;;;9.31;38.61;99982.52;1752789;81;21686;-78
2021/03/08 07:44:28;;;;;;;16.12;11.38;;;;;;;9.39;38.36;99977.17;1762995;80;21632;-80
2021/03/08 07:46:58;;;;;;;15.78;10.48;;;;;;;9.44;38.31;99979.86;1727406;82;21205;-78
2021/03/08 07:49:36;;;;;;;16.82;10.65;;;;;;;9.46;38.44;99980.55;1727958;83;21217;-80
2021/03/08 07:52:10;;;;;;;17.42;10.40;;;;;;;9.46;38.43;99986.73;1728721;82;21180;-79
2021/03/08 07:55:02;;;;;;;17.85;10.85;;;;;;;9.48;38.42;99992.73;1764366;80;21173;-74
2021/03/08 07:57:30;;;;;;;15.58;10.23;;;;;;;9.47;38.49;99988.39;1799431;79;21194;-78
2021/03/08 07:59:59;;;;;;;15.75;10.88;;;;;;;9.49;38.57;99978.36;1765103;80;21079;-78
2021/03/08 08:02:26;;;;;;;17.48;11.33;;;;;;;9.51;38.49;99988.91;1740085;81;21379;-76
2021/03/08 08:04:56;;;;;;;14.87;10.23;;;;;;;9.53;38.50;99987.73;1779453;79;21184;-76
2021/03/08 08:07:26;;;;;;;17.45;10.43;;;;;;;9.54;38.57;99989.94;1776443;79;21139;-81
2021/03/08 08:09:53;;;;;;;19.90;11.22;;;;;;;9.55;38.64;99988.42;1800016;79;21165;-77
2021/03/08 08:12:33;;;;;;;16.10;10.72;;;;;;;9.55;38.71;99977.73;1774816;79;21656;-78
2021/03/08 08:15:05;;;;;;;18.15;10.98;;;;;;;9.56;38.68;99979.40;1802836;79;21196;-81
2021/03/08 08:17:36;;;;;;;20.45;11.15;;;;;;;9.57;38.77;99981.06;1752369;79;21164;-78
2021/03/08 08:20:08;;;;;;;15.88;10.35;;;;;;;9.59;38.79;99983.09;1781236;79;21171;-79
2021/03/08 08:22:35;;;;;;;18.17;11.43;;;;;;;9.63;38.81;99971.58;1796774;79;21194;-76
2021/03/08 08:25:08;;;;;;;13.43;10.20;;;;;;;9.71;38.59;99976.08;1801183;79;21512;-78
2021/03/08 08:27:36;;;;;;;15.68;10.23;;;;;;;9.72;38.61;99973.73;1774395;79;21492;-76
2021/03/08 08:30:06;;;;;;;15.58;10.70;;;;;;;9.72;38.58;99971.92;1704579;82;21189;-76
2021/03/08 08:32:51;;;;;;;21.65;10.93;;;;;;;9.74;38.67;99966.41;1749695;81;21202;-80
2021/03/08 08:35:27;;;;;;;21.60;11.33;;;;;;;9.77;38.66;99968.76;1736802;81;21380;-75
2021/03/08 08:38:15;;;;;;;15.38;10.85;;;;;;;9.78;38.63;99961.06;1740090;81;21185;-78
2021/03/08 08:40:45;;;;;;;19.12;11.63;;;;;;;9.82;38.70;99960.56;1797410;78;21174;-77
2021/03/08 08:43:19;;;;;;;20.15;11.08;;;;;;;9.86;38.83;99964.59;1815322;78;21150;-77
2021/03/08 08:45:49;;;;;;;17.20;10.43;;;;;;;9.91;38.88;99964.09;1792050;79;21213;-75
2021/03/08 08:48:17;;;;;;;17.37;10.58;;;;;;;9.95;38.73;99968.11;1801119;79;21202;-79
2021/03/08 08:50:53;;;;;;;16.52;10.05;;;;;;;9.99;38.66;99964.10;1796245;78;21204;-77
2021/03/08 08:53:41;;;;;;;13.40;9.80;;;;;;;10.06;38.52;99967.77;1798721;79;21788;-76
2021/03/08 08:56:10;;;;;;;15.47;9.57;;;;;;;10.10;38.43;99964.26;1787611;79;21210;-78
2021/03/08 09:01:48;;;;;;;18.92;9.93;;;;;;;10.16;38.56;99966.25;1790174;80;21250;-77
2021/03/08 09:04:17;;;;;;;15.85;9.90;;;;;;;10.21;38.60;99963.91;1757469;81;21169;-78
2021/03/08 09:06:55;;;;;;;16.80;10.03;;;;;;;10.24;38.55;99961.41;1737224;81;21212;-75
2021/03/08 09:09:36;;;;;;;17.62;11.73;;;;;;;10.26;38.59;99963.44;1742845;80;21190;-80
2021/03/08 09:12:09;;;;;;;14.40;10.20;;;;;;;10.28;38.56;99962.28;1719632;82;21182;-76
2021/03/08 09:14:53;;;;;;;12.23;8.83;;;;;;;10.33;38.54;99966.62;1755081;81;21210;-78
2021/03/08 09:17:47;;;;;;;13.00;9.45;;;;;;;10.34;38.59;99962.94;1719993;81;21210;-77
2021/03/08 09:20:24;;;;;;;14.18;9.45;;;;;;;10.38;38.49;99958.08;1741938;82;21206;-75
2021/03/08 09:22:59;;;;;;;15.35;9.90;;;;;;;10.40;38.44;99961.41;1751831;80;21202;-76
2021/03/08 09:25:33;;;;;;;13.60;9.80;;;;;;;10.44;38.28;99960.07;1723060;81;21194;-76
2021/03/08 09:28:10;;;;;;;13.35;9.65;;;;;;;10.45;38.13;99969.80;1758127;80;21215;-77
2021/03/08 09:30:51;;;;;;;16.23;9.75;;;;;;;10.45;38.17;99961.77;1769920;79;21218;-79
2021/03/08 09:33:20;;;;;;;13.68;9.03;;;;;;;10.49;38.25;99964.92;1762914;80;21226;-78
2021/03/08 09:35:55;;;;;;;13.83;9.38;;;;;;;10.50;38.26;99963.44;1761623;79;21222;-76
2021/03/08 09:38:24;;;;;;;19.32;9.40;;;;;;;10.50;38.09;99966.11;1723485;80;21202;-78
2021/03/08 09:40:58;;;;;;;13.78;9.65;;;;;;;10.52;38.26;99968.10;1767301;80;21153;-75
2021/03/08 09:43:31;;;;;;;14.87;9.75;;;;;;;10.54;38.21;99971.46;1757924;80;21133;-79
2021/03/08 09:46:13;;;;;;;13.55;9.55;;;;;;;10.55;38.14;99970.95;1755427;80;21221;-74
2021/03/08 09:48:45;;;;;;;13.20;9.53;;;;;;;10.56;38.16;99967.27;1728403;82;21186;-77
2021/03/08 09:51:15;;;;;;;14.00;9.75;;;;;;;10.57;38.14;99971.10;1760401;80;21382;-76
2021/03/08 09:53:49;;;;;;;13.40;9.83;;;;;;;10.59;37.91;99974.47;1754612;80;22236;-80
2021/03/08 09:56:19;;;;;;;20.95;12.05;;;;;;;10.61;37.87;99980.98;1760910;80;21213;-79
2021/03/08 09:58:46;;;;;;;16.02;10.85;;;;;;;10.61;37.80;99980.47;1763117;80;21466;-79
2021/03/08 10:01:22;;;;;;;28.27;10.53;;;;;;;10.55;37.85;99983.84;1766946;80;21187;-77
2021/03/08 10:03:49;;;;;;;14.78;9.95;;;;;;;10.52;37.98;99987.35;1762568;80;21557;-74
2021/03/08 10:06:32;;;;;;;18.87;10.43;;;;;;;10.51;38.15;99985.69;1751192;80;21283;-76
2021/03/08 10:09:22;;;;;;;13.50;10.20;;;;;;;10.53;37.99;99988.51;1758522;80;21215;-78
2021/03/08 10:12:01;;;;;;;16.32;9.65;;;;;;;10.50;37.81;99990.21;1766346;79;21214;-76
2021/03/08 10:14:29;;;;;;;14.70;10.03;;;;;;;10.48;37.90;99992.20;1760122;79;21176;-77
2021/03/08 10:17:09;;;;;;;15.55;10.50;;;;;;;10.45;37.96;99986.37;1755244;81;21190;-79
2021/03/08 10:19:42;;;;;;;20.52;10.85;;;;;;;10.45;38.09;99991.22;1754111;81;21214;-78
2021/03/08 10:22:07;;;;;;;19.12;11.25;;;;;;;10.41;38.21;99989.88;1755281;80;21189;-77
2021/03/08 10:24:40;;;;;;;23.47;11.22;;;;;;;10.42;38.28;99986.20;1754482;80;21334;-81
2021/03/08 10:27:13;;;;;;;16.17;10.75;;;;;;;10.23;38.56;99987.85;1760615;80;21172;-77
2021/03/08 10:29:40;;;;;;;27.17;12.90;;;;;;;10.15;38.68;99993.52;1736332;81;21220;-79
2021/03/08 10:32:10;;;;;;;19.45;11.90;;;;;;;10.12;38.90;99988.49;1755743;81;21067;-78
2021/03/08 10:34:40;;;;;;;19.32;11.63;;;;;;;10.10;38.88;99985.16;1750717;81;21220;-78
2021/03/08 10:37:10;;;;;;;24.15;12.20;;;;;;;10.10;39.06;99987.84;1784465;79;21186;-79
2021/03/08 10:39:42;;;;;;;15.23;11.03;;;;;;;10.10;39.13;99989.18;1740861;82;21749;-77
2021/03/08 10:42:09;;;;;;;18.32;12.63;;;;;;;10.14;39.13;99988.34;1759012;80;21188;-77
2021/03/08 10:44:37;;;;;;;18.67;13.15;;;;;;;10.14;39.17;99988.34;1753913;80;21707;-76
2021/03/08 10:47:14;;;;;;;13.60;11.40;;;;;;;10.11;39.37;99987.34;1739758;80;21723;-77
2021/03/08 10:49:52;;;;;;;17.98;11.63;;;;;;;10.10;39.50;99991.02;1768298;80;21615;-76
2021/03/08 10:52:22;;;;;;;;;;;;;;;10.07;39.83;99988.67;1753014;80;21197;-77
2021/03/08 10:54:49;;;;;;;14.87;11.28;;;;;;;10.07;39.95;99993.52;1761334;81;20311;-77
2021/03/08 10:57:18;;;;;;;17.12;11.63;;;;;;;10.02;40.24;99994.52;1762076;81;21673;-77
2021/03/08 10:59:53;;;;;;;16.12;12.07;;;;;;;9.98;40.38;99998.52;1738169;81;21373;-75
2021/03/08 11:02:22;;;;;;;16.12;11.75;;;;;;;9.95;40.63;99994.00;1754749;81;21196;-78
2021/03/08 11:04:52;;;;;;;14.35;9.63;;;;;;;9.91;40.88;100004.22;1783557;80;21200;-79
2021/03/08 11:07:32;;;;;;;10.82;7.25;;;;;;;9.87;40.71;100006.37;1725497;82;21221;-78
2021/03/08 11:10:03;;;;;;;6.55;4.20;;;;;;;9.82;40.09;100007.88;1734869;80;21220;-76
2021/03/08 11:12:33;;;;;;;6.50;3.40;;;;;;;9.71;39.00;100018.88;1749345;81;21701;-75
2021/03/08 11:15:04;;;;;;;5.33;3.17;;;;;;;9.62;38.22;100012.66;1750005;81;22514;-76
2021/03/08 11:17:36;;;;;;;5.70;3.17;;;;;;;9.51;38.08;100016.48;1755065;80;21108;-76
2021/03/08 11:20:11;;;;;;;3.95;2.80;;;;;;;9.47;37.90;100016.47;1731857;81;21498;-77
2021/03/08 11:22:59;;;;;;;4.28;2.70;;;;;;;9.44;37.64;100019.95;1756649;81;21200;-78
2021/03/08 11:25:35;;;;;;;7.62;3.00;;;;;;;9.37;37.35;100020.61;1755799;81;21212;-77
2021/03/08 11:28:06;;;;;;;5.20;2.58;;;;;;;9.32;37.10;100018.09;1755475;81;21196;-77
2021/03/08 11:30:34;;;;;;;3.27;2.20;;;;;;;9.28;36.98;100003.37;1769776;80;21185;-78
2021/03/08 11:33:03;;;;;;;5.70;2.40;;;;;;;9.26;36.67;100005.34;1772848;80;21181;-78
2021/03/08 11:35:35;;;;;;;5.67;2.67;;;;;;;9.25;36.69;100003.68;1756350;80;21218;-76
2021/03/08 11:38:14;;;;;;;6.42;2.80;;;;;;;9.23;36.75;100011.87;1751056;81;21236;-75
2021/03/08 11:40:47;;;;;;;5.08;2.70;;;;;;;9.23;36.74;100018.55;1786785;80;21168;-77
2021/03/08 11:43:17;;;;;;;4.87;2.62;;;;;;;9.23;36.58;100025.73;1791150;79;21220;-77
2021/03/08 11:45:44;;;;;;;4.47;2.15;;;;;;;9.24;36.28;100020.72;1770133;79;21184;-76
2021/03/08 11:48:13;;;;;;;5.10;2.33;;;;;;;9.26;36.20;100022.72;1759629;79;21782;-75
2021/03/08 11:50:40;;;;;;;6.87;2.50;;;;;;;9.26;36.05;100018.71;1730950;81;21678;-76
2021/03/08 11:53:10;;;;;;;4.42;2.15;;;;;;;9.24;35.98;100027.41;1755595;81;22307;-77
2021/03/08 11:55:38;;;;;;;9.13;2.98;;;;;;;9.22;36.08;100019.55;1755160;80;21192;-80